Time;durP1;ratioP1;P1;durP2;ratioP2;P2;SDS_P1;SDS_P2;PMS_P1;PMS_P2;Temp;Humidity;BMP_temperature;BMP_pressure;BME280_temperature;BME280_humidity;BME280_pressure;Samples;Min_cycle;Max_cycle;Signal;HPM_P1;HPM_P2
2023/08/15 00:00:09;;;;;;;5.73;5.63;;;;;;;21.34;80.93;100978.03;4824067;29;20668;-68
2023/08/15 00:02:39;;;;;;;6.43;6.03;;;;;;;21.30;80.97;100977.59;4825111;29;20216;-68
2023/08/15 00:05:06;;;;;;;5.80;5.60;;;;;;;21.26;81.24;100968.19;4824545;29;20563;-68
2023/08/15 00:07:52;;;;;;;6.13;5.90;;;;;;;21.23;81.25;100973.25;4823870;29;20674;-68
2023/08/15 00:10:18;;;;;;;7.23;6.83;;;;;;;21.19;81.34;100970.13;4823909;29;20215;-68
2023/08/15 00:12:45;;;;;;;5.97;5.77;;;;;;;21.12;81.64;100958.44;4824191;29;20198;-68
2023/08/15 00:15:12;;;;;;;5.63;5.43;;;;;;;21.09;82.03;100961.53;4824375;29;20206;-68
2023/08/15 00:17:38;;;;;;;6.07;5.93;;;;;;;21.06;82.08;100961.13;4823817;29;20215;-68
2023/08/15 00:20:06;;;;;;;6.53;6.20;;;;;;;21.04;81.96;100952.38;4824122;29;20195;-68
2023/08/15 00:22:32;;;;;;;6.87;6.77;;;;;;;21.00;82.27;100951.97;4824127;29;20660;-68
2023/08/15 00:24:59;;;;;;;6.80;6.43;;;;;;;20.99;82.44;100944.88;4824071;29;20247;-68
2023/08/15 00:27:25;;;;;;;7.47;6.97;;;;;;;20.99;82.56;100944.88;4825895;29;20218;-68
2023/08/15 00:29:52;;;;;;;7.90;7.57;;;;;;;20.97;82.81;100947.78;4827196;29;20211;-68
2023/08/15 00:32:18;;;;;;;7.10;6.70;;;;;;;20.92;83.03;100942.16;4825741;29;20203;-68
2023/08/15 00:34:45;;;;;;;6.60;6.43;;;;;;;20.91;83.45;100940.50;4827466;29;20219;-68
2023/08/15 00:37:11;;;;;;;8.00;7.67;;;;;;;20.90;83.08;100933.41;4826817;29;20215;-68
2023/08/15 00:39:39;;;;;;;7.57;7.13;;;;;;;20.85;83.57;100933.19;4825831;29;20762;-68
2023/08/15 00:42:08;;;;;;;6.97;6.87;;;;;;;20.82;83.79;100936.34;4825574;29;20199;-68
2023/08/15 00:44:37;;;;;;;6.20;6.00;;;;;;;20.84;83.68;100938.84;4825563;29;20203;-68
2023/08/15 00:47:03;;;;;;;6.97;6.87;;;;;;;20.78;83.82;100935.09;4827219;29;20223;-68
2023/08/15 00:49:30;;;;;;;7.33;7.13;;;;;;;20.73;83.98;100945.78;4826657;29;20208;-68
2023/08/15 00:51:57;;;;;;;7.57;7.37;;;;;;;20.72;83.96;100944.09;4826770;29;20180;-68
2023/08/15 00:54:23;;;;;;;6.80;6.50;;;;;;;20.68;84.10;100940.13;4825431;29;20195;-68
2023/08/15 00:56:50;;;;;;;8.23;7.73;;;;;;;20.64;84.36;100932.63;4826810;29;20183;-68
2023/08/15 00:59:16;;;;;;;7.23;6.97;;;;;;;20.62;84.35;100930.13;4826613;29;20176;-68
2023/08/15 01:01:43;;;;;;;7.37;6.70;;;;;;;20.60;84.63;100929.50;4826818;29;20180;-68
2023/08/15 01:04:10;;;;;;;6.13;5.97;;;;;;;20.60;84.43;100940.38;4826765;29;20611;-68
2023/08/15 01:06:37;;;;;;;6.77;6.23;;;;;;;20.60;84.35;100944.97;4825387;29;20199;-68
2023/08/15 01:09:03;;;;;;;6.80;6.50;;;;;;;20.60;84.67;100939.53;4810078;29;20664;-68
2023/08/15 01:11:45;;;;;;;7.43;7.07;;;;;;;20.58;84.36;100934.28;4825102;29;20207;-68
2023/08/15 01:14:16;;;;;;;7.43;6.73;;;;;;;20.60;84.57;100925.94;4825105;29;20244;-68
2023/08/15 01:16:44;;;;;;;6.70;6.37;;;;;;;20.58;84.58;100922.63;4826237;29;20636;-68
2023/08/15 01:19:29;;;;;;;6.93;6.53;;;;;;;20.54;84.89;100922.19;4826483;29;20195;-68
2023/08/15 01:21:57;;;;;;;6.00;5.87;;;;;;;20.52;84.77;100908.81;4826746;29;20258;-68
2023/08/15 01:24:24;;;;;;;7.17;6.87;;;;;;;20.51;84.98;100906.31;4824929;29;20713;-68
2023/08/15 01:26:51;;;;;;;6.60;6.17;;;;;;;20.50;85.13;100904.63;4824839;29;20195;-68
2023/08/15 01:29:18;;;;;;;7.20;6.83;;;;;;;20.49;85.57;100892.13;4825012;29;20688;-68
2023/08/15 01:31:53;;;;;;;6.93;6.63;;;;;;;20.46;85.53;100887.09;4826067;29;20269;-68
2023/08/15 01:34:31;;;;;;;7.37;6.87;;;;;;;20.45;85.26;100890.88;4824845;29;20203;-68
2023/08/15 01:37:04;;;;;;;7.57;7.07;;;;;;;20.41;85.70;100890.44;4824645;29;20588;-68
2023/08/15 01:39:32;;;;;;;7.87;7.40;;;;;;;20.39;86.00;100894.44;4824678;29;20668;-68
2023/08/15 01:42:03;;;;;;;7.60;7.40;;;;;;;20.42;85.56;100892.13;4825962;29;20266;-68
2023/08/15 01:44:31;;;;;;;7.57;6.97;;;;;;;20.46;86.04;100895.25;4825875;29;20640;-68
2023/08/15 01:46:58;;;;;;;7.13;6.93;;;;;;;20.47;85.94;100894.22;4824521;29;20223;-68
2023/08/15 01:49:24;;;;;;;7.30;7.17;;;;;;;20.46;86.14;100895.25;4825957;29;20576;-68
2023/08/15 01:51:54;;;;;;;9.10;8.63;;;;;;;20.43;85.87;100885.66;4825973;29;20183;-68
2023/08/15 01:54:20;;;;;;;7.30;7.00;;;;;;;20.42;86.00;100891.28;4824453;29;20560;-68
2023/08/15 01:56:47;;;;;;;7.87;7.43;;;;;;;20.43;86.16;100891.09;4825605;29;20251;-68
2023/08/15 01:59:13;;;;;;;7.43;7.23;;;;;;;20.44;85.94;100891.91;4824647;29;20568;-68
2023/08/15 02:01:39;;;;;;;7.30;7.03;;;;;;;20.44;86.36;100905.50;4824911;29;20207;-68
2023/08/15 02:04:06;;;;;;;8.13;7.57;;;;;;;20.42;86.21;100907.56;4825565;29;20215;-68
2023/08/15 02:06:34;;;;;;;8.20;7.50;;;;;;;20.38;85.70;100912.59;4825513;29;20188;-68
2023/08/15 02:09:01;;;;;;;8.53;7.80;;;;;;;20.36;86.17;100897.59;4824391;29;20223;-68
2023/08/15 02:11:32;;;;;;;7.57;7.27;;;;;;;20.33;85.62;100897.97;4824436;29;20267;-68
2023/08/15 02:13:58;;;;;;;6.70;6.60;;;;;;;20.30;85.98;100907.41;4825415;29;20199;-68
2023/08/15 02:16:25;;;;;;;7.97;7.70;;;;;;;20.31;85.94;100913.66;4825667;29;20248;-68
2023/08/15 02:18:53;;;;;;;7.60;7.30;;;;;;;20.31;85.94;100910.94;4824038;29;20219;-68
2023/08/15 02:21:19;;;;;;;7.17;7.00;;;;;;;20.29;86.09;100916.56;4825538;29;20554;-68
2023/08/15 02:23:46;;;;;;;7.00;6.90;;;;;;;20.29;86.20;100924.72;4825262;29;20214;-68
2023/08/15 02:26:12;;;;;;;8.20;7.80;;;;;;;20.34;85.97;100924.09;4825251;29;20240;-68
2023/08/15 02:28:39;;;;;;;7.57;7.37;;;;;;;20.28;85.64;100933.06;4825133;29;20223;-68
2023/08/15 02:31:05;;;;;;;8.07;7.87;;;;;;;20.28;86.23;100944.78;4825117;29;20208;-68
2023/08/15 02:33:32;;;;;;;7.33;7.23;;;;;;;20.27;85.82;100953.13;4825634;29;20203;-68
2023/08/15 02:36:05;;;;;;;6.90;6.70;;;;;;;20.28;85.85;100949.38;4823879;29;20199;-68
2023/08/15 02:38:32;;;;;;;7.63;7.33;;;;;;;20.27;86.68;100942.25;4825026;29;20219;-68
2023/08/15 02:40:58;;;;;;;8.00;7.57;;;;;;;20.32;86.42;100939.78;4823723;29;20260;-68
2023/08/15 02:43:25;;;;;;;8.53;7.80;;;;;;;20.37;86.54;100937.25;4825015;29;20199;-68
2023/08/15 02:45:51;;;;;;;8.90;8.10;;;;;;;20.39;86.28;100935.16;4825232;29;20204;-68
2023/08/15 02:48:18;;;;;;;8.17;7.87;;;;;;;20.44;86.67;100935.38;4825352;29;20291;-68
2023/08/15 02:50:44;;;;;;;8.53;7.80;;;;;;;20.51;86.65;100925.34;4824421;29;20285;-68
2023/08/15 02:53:10;;;;;;;8.37;7.90;;;;;;;20.50;86.39;100920.94;4823634;29;20206;-68
2023/08/15 02:55:37;;;;;;;8.13;7.83;;;;;;;20.48;86.90;100913.03;4824857;29;20191;-68
2023/08/15 02:58:03;;;;;;;7.27;7.00;;;;;;;20.50;86.44;100907.34;4825263;29;20722;-68
2023/08/15 03:00:30;;;;;;;7.90;7.60;;;;;;;20.50;86.36;100913.63;4825031;29;20191;-68
2023/08/15 03:02:56;;;;;;;7.47;7.20;;;;;;;20.50;86.77;100910.06;4825266;29;20194;-68
2023/08/15 03:05:23;;;;;;;7.87;7.37;;;;;;;20.51;86.87;100906.31;4825208;29;20199;-68
2023/08/15 03:07:49;;;;;;;8.50;8.30;;;;;;;20.48;86.75;100904.88;4824633;29;20271;-68
2023/08/15 03:10:16;;;;;;;9.27;8.50;;;;;;;20.48;86.85;100906.75;4823333;29;20281;-68
2023/08/15 03:12:43;;;;;;;7.70;7.40;;;;;;;20.50;86.57;100910.91;4824883;29;20199;-68
2023/08/15 03:15:09;;;;;;;7.73;7.57;;;;;;;20.51;86.77;100915.31;4823362;29;20199;-68
2023/08/15 03:17:36;;;;;;;7.57;7.33;;;;;;;20.52;87.12;100922.41;4823306;29;20223;-68
2023/08/15 03:20:04;;;;;;;7.00;6.90;;;;;;;20.53;87.19;100923.25;4823304;29;20282;-68
2023/08/15 03:22:30;;;;;;;7.60;7.40;;;;;;;20.55;86.68;100914.88;4823324;29;20198;-68
2023/08/15 03:24:58;;;;;;;8.03;7.23;;;;;;;20.53;87.56;100906.94;4823218;29;20605;-68
2023/08/15 03:27:24;;;;;;;7.17;6.97;;;;;;;20.58;87.47;100904.41;4823132;29;20225;-68
2023/08/15 03:29:51;;;;;;;7.40;7.10;;;;;;;20.60;87.36;100899.63;4824339;29;20187;-68
2023/08/15 03:32:17;;;;;;;7.03;6.83;;;;;;;20.63;87.28;100901.06;4823137;29;20207;-68
2023/08/15 03:34:44;;;;;;;7.03;6.77;;;;;;;20.66;87.51;100922.38;4824377;29;20196;-68
2023/08/15 03:37:10;;;;;;;7.57;7.00;;;;;;;20.87;86.88;100922.13;4823034;29;20223;-68
2023/08/15 03:39:37;;;;;;;7.97;7.20;;;;;;;20.89;86.90;100929.00;4824394;29;20207;-67
2023/08/15 03:42:04;;;;;;;6.33;6.23;;;;;;;20.97;87.05;100917.88;4823051;29;20206;-67
2023/08/15 03:44:30;;;;;;;11.03;6.33;;;;;;;21.05;86.74;100913.28;4824245;29;20200;-67
2023/08/15 03:46:56;;;;;;;6.53;6.43;;;;;;;21.17;86.49;100914.31;4824395;29;20191;-69
2023/08/15 03:49:23;;;;;;;6.87;6.47;;;;;;;21.28;85.93;100919.88;4822969;29;20669;-68
2023/08/15 03:51:51;;;;;;;6.43;6.17;;;;;;;21.48;84.95;100914.31;4824368;29;20207;-68
2023/08/15 03:54:17;;;;;;;6.30;6.00;;;;;;;21.49;84.94;100917.88;4822917;29;20199;-68
2023/08/15 03:56:44;;;;;;;6.30;6.17;;;;;;;21.51;85.31;100902.19;4822882;29;20195;-69
2023/08/15 03:59:11;;;;;;;6.93;6.30;;;;;;;21.45;85.53;100879.41;4824314;29;20199;-69
2023/08/15 04:01:37;;;;;;;6.53;6.23;;;;;;;21.39;85.50;100863.94;4826362;29;20207;-69
2023/08/15 04:04:04;;;;;;;6.97;6.63;;;;;;;21.35;86.27;100838.25;4827503;29;20196;-69
2023/08/15 04:06:31;;;;;;;11.10;6.97;;;;;;;21.28;86.37;100832.03;4826421;29;20203;-69
2023/08/15 04:08:57;;;;;;;6.33;6.10;;;;;;;21.22;86.57;100838.31;4827541;29;20239;-70
2023/08/15 04:11:24;;;;;;;6.63;6.23;;;;;;;21.24;86.73;100872.41;4826035;29;20222;-70
2023/08/15 04:13:51;;;;;;;6.67;6.17;;;;;;;21.31;85.87;100884.09;4826076;29;20660;-70
2023/08/15 04:16:17;;;;;;;7.27;6.63;;;;;;;21.29;85.76;100915.28;4826565;29;20199;-70
2023/08/15 04:18:44;;;;;;;11.13;6.67;;;;;;;21.27;85.90;100933.69;4826128;29;20227;-69
2023/08/15 04:21:11;;;;;;;7.73;6.97;;;;;;;21.25;86.22;100952.97;4827461;29;20192;-69
2023/08/15 04:23:38;;;;;;;9.73;6.70;;;;;;;21.17;86.46;100963.25;4825879;29;20673;-69
2023/08/15 04:26:05;;;;;;;7.93;7.23;;;;;;;21.07;86.78;100984.56;4827100;29;20206;-69
2023/08/15 04:28:31;;;;;;;8.23;7.43;;;;;;;21.04;87.38;100996.72;4826564;29;20222;-69
2023/08/15 04:30:58;;;;;;;7.73;6.80;;;;;;;20.98;88.28;100989.41;4825687;29;20222;-68
2023/08/15 04:33:24;;;;;;;10.17;7.37;;;;;;;20.95;88.61;101011.59;4826007;29;20212;-68
2023/08/15 04:35:51;;;;;;;7.90;7.10;;;;;;;20.90;88.67;101014.09;4825727;29;20207;-68
2023/08/15 04:38:17;;;;;;;7.10;6.80;;;;;;;20.91;89.13;101032.09;4825600;29;20275;-69
2023/08/15 04:40:44;;;;;;;8.10;7.37;;;;;;;20.90;88.93;101039.41;4826003;29;20290;-68
2023/08/15 04:43:11;;;;;;;7.30;6.87;;;;;;;20.90;88.76;101047.56;4825597;29;20199;-68
2023/08/15 04:45:40;;;;;;;6.83;6.60;;;;;;;20.88;88.88;101051.50;4825706;29;20203;-68
2023/08/15 04:48:10;;;;;;;7.23;6.73;;;;;;;20.87;88.99;101052.56;4825471;29;20223;-69
2023/08/15 04:50:37;;;;;;;7.37;6.73;;;;;;;20.85;88.81;101055.50;4825411;29;20311;-69
2023/08/15 04:53:05;;;;;;;7.97;7.20;;;;;;;20.80;88.81;101057.16;4825465;29;20248;-68
2023/08/15 04:55:32;;;;;;;8.23;7.43;;;;;;;20.77;89.25;101066.59;4825487;29;20231;-68
2023/08/15 04:57:59;;;;;;;7.20;6.43;;;;;;;20.77;89.48;101069.31;4825520;29;20231;-69
2023/08/15 05:00:25;;;;;;;7.07;6.67;;;;;;;20.84;88.48;101075.56;4825562;29;20290;-68
2023/08/15 05:02:52;;;;;;;6.60;6.10;;;;;;;20.79;89.14;101069.09;4826521;29;20248;-68
2023/08/15 05:05:18;;;;;;;11.50;8.10;;;;;;;20.76;88.64;101069.50;4826712;29;20663;-68
2023/08/15 05:07:45;;;;;;;8.67;7.50;;;;;;;20.74;88.74;101077.88;4825370;29;20219;-69
2023/08/15 05:10:12;;;;;;;7.63;6.93;;;;;;;20.75;88.39;101084.16;4825142;29;20579;-68
2023/08/15 05:12:41;;;;;;;8.90;7.80;;;;;;;20.75;88.57;101084.97;4824376;29;20332;-68
2023/08/15 05:15:09;;;;;;;11.27;7.73;;;;;;;20.71;88.66;101078.28;4825303;29;20196;-68
2023/08/15 05:17:35;;;;;;;6.73;6.43;;;;;;;20.70;88.52;101073.06;4824991;29;20219;-68
2023/08/15 05:20:04;;;;;;;7.50;6.90;;;;;;;20.70;88.62;101078.50;4825029;29;20298;-68
2023/08/15 05:22:31;;;;;;;7.33;6.50;;;;;;;20.67;88.40;101079.75;4826188;29;20199;-68
2023/08/15 05:24:58;;;;;;;7.53;6.97;;;;;;;20.64;88.37;101077.44;4825871;29;20244;-68
2023/08/15 05:27:25;;;;;;;7.53;7.33;;;;;;;20.63;88.32;101078.50;4824825;29;20215;-68
2023/08/15 05:29:52;;;;;;;9.17;6.90;;;;;;;20.60;87.39;101078.91;4824873;29;20203;-68
2023/08/15 05:32:18;;;;;;;7.90;6.90;;;;;;;20.61;88.08;101077.03;4824751;29;20260;-68
2023/08/15 05:34:45;;;;;;;6.97;6.50;;;;;;;20.60;87.80;101065.34;4826285;29;20218;-68
2023/08/15 05:37:11;;;;;;;7.20;6.70;;;;;;;20.63;87.55;101066.78;4826082;29;20336;-68
2023/08/15 05:39:38;;;;;;;7.20;6.53;;;;;;;20.60;87.83;101087.06;4824713;29;20301;-68
2023/08/15 05:42:04;;;;;;;6.70;6.10;;;;;;;20.62;87.35;101076.84;4824703;29;20230;-68
2023/08/15 05:44:31;;;;;;;5.47;5.37;;;;;;;20.61;87.46;101074.31;4825904;29;20187;-68
2023/08/15 05:46:58;;;;;;;5.83;5.63;;;;;;;20.63;86.71;101078.50;4825764;29;20206;-69
2023/08/15 05:49:24;;;;;;;8.23;5.20;;;;;;;20.59;87.13;101076.41;4825780;29;20260;-67
2023/08/15 05:51:52;;;;;;;6.00;5.77;;;;;;;20.58;86.87;101078.28;4825658;29;20223;-68
2023/08/15 05:54:19;;;;;;;5.77;5.47;;;;;;;20.61;86.79;101079.75;4825671;29;20737;-68
2023/08/15 05:56:45;;;;;;;10.60;5.30;;;;;;;20.61;86.93;101069.72;4825610;29;20195;-68
2023/08/15 05:59:11;;;;;;;9.20;5.40;;;;;;;20.63;86.38;101080.38;4826117;29;20200;-68
2023/08/15 06:01:38;;;;;;;6.17;5.87;;;;;;;20.61;87.01;101080.59;4824538;29;20199;-68
2023/08/15 06:04:05;;;;;;;6.00;5.80;;;;;;;20.62;86.90;101093.13;4825564;29;20199;-67
2023/08/15 06:06:32;;;;;;;5.77;5.63;;;;;;;20.60;86.74;101092.50;4825807;29;20199;-71
2023/08/15 06:08:59;;;;;;;8.90;6.70;;;;;;;20.63;86.55;101092.06;4825442;29;20281;-71
2023/08/15 06:11:26;;;;;;;8.83;6.20;;;;;;;20.73;86.39;101100.66;4825323;29;20626;-71
2023/08/15 06:13:52;;;;;;;6.17;5.80;;;;;;;20.70;86.09;101106.53;4825449;29;20606;-71
2023/08/15 06:16:19;;;;;;;7.07;6.50;;;;;;;20.73;85.87;101110.69;4825372;29;20660;-71
2023/08/15 06:18:45;;;;;;;7.10;6.53;;;;;;;20.69;86.49;101106.72;4825518;29;20219;-71
2023/08/15 06:21:12;;;;;;;6.40;5.87;;;;;;;20.72;86.63;101112.56;4825586;29;20195;-71
2023/08/15 06:23:38;;;;;;;6.60;6.40;;;;;;;20.73;86.23;101110.69;4825314;29;20609;-71
2023/08/15 06:26:05;;;;;;;5.90;5.70;;;;;;;20.75;86.35;101124.91;4825241;29;20191;-73
2023/08/15 06:28:31;;;;;;;7.33;6.70;;;;;;;20.83;86.42;101128.25;4825287;29;20224;-72
2023/08/15 06:30:57;;;;;;;9.17;6.53;;;;;;;20.83;86.24;101116.56;4825111;29;20226;-72
2023/08/15 06:33:24;;;;;;;6.87;6.27;;;;;;;20.91;86.28;101129.94;4825849;29;20282;-72
2023/08/15 06:35:50;;;;;;;9.37;7.90;;;;;;;20.96;85.77;101130.16;4825158;29;20204;-71
2023/08/15 06:38:17;;;;;;;9.47;6.87;;;;;;;21.09;84.99;101126.59;4824998;29;20268;-71
2023/08/15 06:40:43;;;;;;;8.87;7.27;;;;;;;21.05;84.73;101133.50;4824938;29;20203;-71
2023/08/15 06:43:10;;;;;;;7.27;6.67;;;;;;;21.10;84.74;101126.34;4824999;29;20544;-71
2023/08/15 06:45:36;;;;;;;8.23;7.33;;;;;;;21.13;84.10;101130.59;4825205;29;20260;-71
2023/08/15 06:48:05;;;;;;;8.00;7.30;;;;;;;21.13;83.56;101125.94;4825184;29;20243;-71
2023/08/15 06:50:32;;;;;;;6.80;6.20;;;;;;;21.16;84.27;101130.16;4824799;29;20205;-71
2023/08/15 06:52:59;;;;;;;8.90;7.00;;;;;;;21.18;84.12;101130.75;4824886;29;20614;-71
2023/08/15 06:55:26;;;;;;;8.77;8.00;;;;;;;21.18;83.25;101134.31;4825081;29;20202;-71
2023/08/15 06:57:53;;;;;;;10.80;8.70;;;;;;;21.16;83.75;101139.16;4824749;29;20215;-70
2023/08/15 07:00:20;;;;;;;11.20;10.10;;;;;;;21.09;83.26;101134.75;4825032;29;20273;-71
2023/08/15 07:02:46;;;;;;;12.53;9.07;;;;;;;21.02;83.67;101136.59;4825026;29;20200;-71
2023/08/15 07:05:13;;;;;;;11.90;9.10;;;;;;;21.00;84.03;101136.00;4824679;29;20682;-71
2023/08/15 07:07:39;;;;;;;15.30;9.67;;;;;;;20.97;83.31;101132.63;4824916;29;20281;-71
2023/08/15 07:10:06;;;;;;;10.70;9.10;;;;;;;20.93;82.13;101134.09;4824856;29;20220;-71
2023/08/15 07:12:33;;;;;;;9.20;8.50;;;;;;;20.90;81.74;101128.25;4825012;29;20255;-71
2023/08/15 07:15:01;;;;;;;9.90;9.40;;;;;;;20.84;80.95;101123.63;4824587;29;20200;-71
2023/08/15 07:17:27;;;;;;;9.73;9.03;;;;;;;20.96;82.01;101130.94;4825079;29;20219;-71
2023/08/15 07:19:54;;;;;;;9.90;9.07;;;;;;;20.89;81.68;101132.84;4824690;29;20203;-71
2023/08/15 07:22:20;;;;;;;9.30;8.40;;;;;;;20.84;80.87;101134.50;4824745;29;20191;-71
2023/08/15 07:24:47;;;;;;;8.40;7.40;;;;;;;20.84;80.71;101145.38;4824505;29;20195;-71
2023/08/15 07:27:14;;;;;;;8.10;6.50;;;;;;;20.78;77.81;101135.38;4824417;29;20211;-71
2023/08/15 07:29:40;;;;;;;6.60;6.00;;;;;;;20.69;77.26;101136.59;4824378;29;20224;-71
2023/08/15 07:32:08;;;;;;;5.70;5.37;;;;;;;20.64;78.28;101136.38;4824325;29;20219;-71
2023/08/15 07:34:37;;;;;;;7.13;5.93;;;;;;;20.63;78.21;101143.69;4824741;29;20214;-71
2023/08/15 07:37:04;;;;;;;13.40;5.80;;;;;;;20.66;79.60;101146.03;4830246;29;20703;-70
2023/08/15 07:39:31;;;;;;;4.97;4.80;;;;;;;20.70;78.52;101154.59;4830137;29;20263;-71
2023/08/15 07:41:57;;;;;;;5.47;4.83;;;;;;;20.78;78.56;101148.94;4830445;29;20187;-71
2023/08/15 07:44:25;;;;;;;5.27;4.77;;;;;;;20.70;77.52;101147.28;4830196;29;20672;-71
2023/08/15 07:46:52;;;;;;;4.60;4.20;;;;;;;20.56;78.06;101145.56;4830514;29;20656;-71
2023/08/15 07:49:18;;;;;;;3.70;3.47;;;;;;;20.60;78.01;101151.44;4830140;29;20199;-71
2023/08/15 07:51:45;;;;;;;8.00;3.53;;;;;;;20.63;76.87;101160.00;4830104;29;20221;-71
2023/08/15 07:54:11;;;;;;;6.10;3.70;;;;;;;20.60;76.44;101165.84;4830119;29;20203;-71
2023/08/15 07:56:38;;;;;;;4.20;3.90;;;;;;;20.67;76.59;101171.28;4830078;29;20195;-71
2023/08/15 07:59:04;;;;;;;5.67;4.20;;;;;;;20.62;76.67;101169.22;4830068;29;20195;-70
2023/08/15 08:01:30;;;;;;;6.70;4.47;;;;;;;20.68;76.74;101175.69;4830273;29;20601;-71
2023/08/15 08:03:57;;;;;;;4.10;3.87;;;;;;;20.69;76.54;101177.38;4830501;29;20657;-71
2023/08/15 08:06:23;;;;;;;5.37;4.10;;;;;;;20.76;77.07;101178.19;4829994;29;20206;-71
2023/08/15 08:09:05;;;;;;;4.73;4.40;;;;;;;20.79;77.22;101175.91;4830016;29;20258;-71
2023/08/15 08:11:32;;;;;;;4.37;4.17;;;;;;;20.85;76.55;101185.13;4829868;29;20214;-71
2023/08/15 08:13:58;;;;;;;3.50;3.40;;;;;;;20.91;74.74;101193.28;4829956;29;20199;-71
2023/08/15 08:16:25;;;;;;;3.53;3.20;;;;;;;20.95;73.53;101201.88;4830466;29;20223;-71
2023/08/15 08:18:51;;;;;;;3.40;3.13;;;;;;;21.00;74.21;101196.66;4830270;29;20631;-71
2023/08/15 08:21:18;;;;;;;3.00;2.67;;;;;;;20.96;73.76;101189.94;4829887;29;20687;-71
2023/08/15 08:23:46;;;;;;;9.57;3.30;;;;;;;21.10;73.03;101188.03;4830105;29;20207;-71
2023/08/15 08:26:12;;;;;;;4.00;3.60;;;;;;;21.26;73.34;101193.94;4830122;29;20231;-71
2023/08/15 08:28:39;;;;;;;3.30;3.20;;;;;;;21.29;72.60;101206.28;4829780;29;20215;-70
2023/08/15 08:31:06;;;;;;;5.27;2.60;;;;;;;21.38;73.43;101207.75;4829942;29;20194;-71
2023/08/15 08:33:33;;;;;;;5.57;2.67;;;;;;;21.38;73.16;101202.31;4830272;29;20195;-71
2023/08/15 08:35:59;;;;;;;3.30;3.13;;;;;;;21.54;72.04;101211.91;4829993;29;20203;-71
2023/08/15 08:38:26;;;;;;;4.33;2.87;;;;;;;21.61;73.57;101208.13;4830049;29;20214;-71
2023/08/15 08:40:57;;;;;;;5.73;3.00;;;;;;;21.78;73.49;101222.97;4829759;29;20252;-71
2023/08/15 08:43:25;;;;;;;4.23;2.07;;;;;;;21.78;71.20;101214.78;4829995;29;20199;-71
2023/08/15 08:45:57;;;;;;;2.63;2.43;;;;;;;21.81;72.43;101222.53;4829645;29;20203;-71
2023/08/15 08:48:24;;;;;;;2.70;2.60;;;;;;;21.79;70.96;101219.19;4826054;29;20310;-71
2023/08/15 08:50:51;;;;;;;3.80;2.90;;;;;;;21.79;71.28;101213.75;4826959;29;20203;-71
2023/08/15 08:53:17;;;;;;;6.83;2.53;;;;;;;21.80;71.09;101212.72;4826635;29;20215;-71
2023/08/15 08:55:48;;;;;;;8.10;3.07;;;;;;;21.81;71.89;101219.00;4826846;29;20195;-71
2023/08/15 08:58:14;;;;;;;6.40;2.73;;;;;;;21.95;71.98;101219.81;4826521;29;20696;-71
2023/08/15 09:00:41;;;;;;;3.23;2.63;;;;;;;21.92;69.93;101222.94;4827331;29;20191;-70
2023/08/15 09:03:09;;;;;;;2.83;2.83;;;;;;;21.92;69.96;101229.25;4827084;29;20180;-70
2023/08/15 09:05:36;;;;;;;5.30;3.27;;;;;;;22.00;68.88;101222.72;4826488;29;20195;-70
2023/08/15 09:08:03;;;;;;;3.23;3.03;;;;;;;22.02;70.05;101223.38;4826486;29;20231;-70
2023/08/15 09:10:30;;;;;;;3.63;2.63;;;;;;;22.06;69.09;101214.56;4826567;29;20651;-71
2023/08/15 09:12:59;;;;;;;2.83;2.67;;;;;;;22.03;69.75;101222.28;4826776;29;20226;-71
2023/08/15 09:15:26;;;;;;;2.57;2.47;;;;;;;22.14;70.01;101213.47;4826291;29;20196;-71
2023/08/15 09:18:00;;;;;;;3.00;2.80;;;;;;;22.20;69.03;101218.88;4827125;29;20247;-71
2023/08/15 09:20:27;;;;;;;1.70;1.70;;;;;;;22.26;68.48;101234.38;4826488;29;20187;-71
2023/08/15 09:22:58;;;;;;;1.80;1.80;;;;;;;22.18;69.55;101231.06;4826214;29;20340;-71
2023/08/15 09:25:27;;;;;;;2.83;1.93;;;;;;;22.18;67.09;101223.72;4826682;29;20187;-71
2023/08/15 09:27:53;;;;;;;2.77;1.90;;;;;;;22.26;67.56;101218.03;4826261;29;20238;-71
2023/08/15 09:30:21;;;;;;;1.93;1.93;;;;;;;22.28;67.19;101223.25;4826606;29;20275;-71
2023/08/15 09:32:47;;;;;;;2.97;1.63;;;;;;;22.35;68.16;101226.78;4825935;29;20711;-71
2023/08/15 09:35:16;;;;;;;1.63;1.63;;;;;;;22.45;67.17;101226.34;4825992;29;20191;-71
2023/08/15 09:37:48;;;;;;;3.87;1.63;;;;;;;22.55;67.06;101222.06;4825919;29;20280;-71
2023/08/15 09:40:17;;;;;;;2.23;2.10;;;;;;;22.53;67.33;101228.81;4825952;29;20199;-71
2023/08/15 09:42:45;;;;;;;1.93;1.93;;;;;;;22.60;67.16;101227.72;4825904;29;20256;-71
2023/08/15 09:45:13;;;;;;;2.00;1.93;;;;;;;22.58;67.03;101229.81;4825792;29;20195;-71
2023/08/15 09:47:40;;;;;;;2.38;2.00;;;;;;;22.54;67.35;101234.03;4825987;29;20255;-71
2023/08/15 09:50:08;;;;;;;2.55;1.92;;;;;;;22.61;66.92;101239.44;4825959;29;20625;-72
2023/08/15 09:52:42;;;;;;;2.00;1.90;;;;;;;22.77;66.17;101234.34;4825684;29;20275;-72
2023/08/15 09:55:14;;;;;;;1.73;1.73;;;;;;;22.83;67.03;101242.72;4826041;29;20196;-71
2023/08/15 09:57:42;;;;;;;1.83;1.83;;;;;;;22.87;65.46;101241.22;4825528;29;20288;-72
2023/08/15 10:00:17;;;;;;;3.33;1.98;;;;;;;22.90;65.83;101244.34;4825873;29;20195;-72
2023/08/15 10:03:05;;;;;;;6.13;1.85;;;;;;;23.04;64.82;101242.34;4825893;29;20179;-72
2023/08/15 10:05:33;;;;;;;2.13;1.63;;;;;;;22.95;64.40;101254.59;4825790;29;20198;-72
2023/08/15 10:07:59;;;;;;;1.80;1.67;;;;;;;23.13;64.89;101252.75;4825483;29;20222;-71
2023/08/15 10:10:27;;;;;;;3.17;2.28;;;;;;;23.23;65.06;101257.72;4825509;29;20687;-72
2023/08/15 10:12:55;;;;;;;3.03;1.98;;;;;;;23.21;65.63;101252.47;4825514;29;20221;-72
2023/08/15 10:15:23;;;;;;;2.20;1.88;;;;;;;23.31;64.74;101253.88;4825621;29;20236;-72
2023/08/15 10:17:50;;;;;;;2.10;1.73;;;;;;;23.33;63.33;101251.78;4825266;29;20222;-72
2023/08/15 10:20:18;;;;;;;11.90;2.03;;;;;;;23.36;63.14;101251.34;4825251;29;20198;-72
2023/08/15 10:22:49;;;;;;;2.35;2.25;;;;;;;23.40;62.24;101258.00;4825585;29;20201;-72
2023/08/15 10:25:27;;;;;;;5.88;1.98;;;;;;;23.47;64.25;101256.91;4825313;29;20179;-71
2023/08/15 10:27:55;;;;;;;3.33;2.30;;;;;;;23.36;64.78;101257.63;4825131;29;20275;-72
2023/08/15 10:30:30;;;;;;;2.22;2.20;;;;;;;23.48;62.57;101269.53;4825463;29;20203;-71
2023/08/15 10:33:01;;;;;;;2.45;2.00;;;;;;;23.52;63.52;101250.78;4825115;29;20222;-71
2023/08/15 10:35:31;;;;;;;10.05;2.17;;;;;;;23.44;64.33;101262.00;4825449;29;20199;-71
2023/08/15 10:37:58;;;;;;;3.20;2.33;;;;;;;23.61;62.34;101261.22;4825327;29;20251;-71
2023/08/15 10:40:38;;;;;;;1.80;1.80;;;;;;;23.60;60.56;101266.88;4825035;29;20211;-71
2023/08/15 10:43:07;;;;;;;4.05;2.50;;;;;;;23.66;64.26;101261.38;4825034;29;20244;-71
2023/08/15 10:45:50;;;;;;;2.83;2.83;;;;;;;23.77;62.22;101262.53;4824954;29;20206;-71
2023/08/15 10:48:37;;;;;;;4.55;2.90;;;;;;;23.89;63.68;101260.72;4824978;29;20215;-71
2023/08/15 10:51:27;;;;;;;3.75;2.75;;;;;;;23.81;60.33;101268.38;4825409;29;20515;-71
2023/08/15 10:53:59;;;;;;;3.50;2.90;;;;;;;23.81;61.52;101277.41;4824818;29;20206;-72
2023/08/15 10:56:28;;;;;;;2.83;2.63;;;;;;;23.82;59.59;101261.84;4825409;29;20183;-72
2023/08/15 10:58:55;;;;;;;2.38;2.22;;;;;;;23.88;61.58;101271.88;4824776;29;20560;-71
2023/08/15 11:01:24;;;;;;;11.77;2.92;;;;;;;23.89;60.38;101273.56;4825011;29;20569;-72
2023/08/15 11:03:52;;;;;;;5.32;2.20;;;;;;;23.90;59.16;101276.06;4824741;29;20195;-72
2023/08/15 11:06:19;;;;;;;2.45;2.45;;;;;;;23.93;60.29;101263.84;4824939;29;20199;-72
2023/08/15 11:08:51;;;;;;;3.13;2.95;;;;;;;23.87;61.25;101265.59;4825033;29;20264;-71
2023/08/15 11:11:18;;;;;;;3.10;2.90;;;;;;;23.89;61.24;101268.09;4824255;29;20641;-71
2023/08/15 11:13:50;;;;;;;6.28;2.95;;;;;;;23.97;62.55;101265.91;4824533;29;20699;-71
2023/08/15 11:16:18;;;;;;;9.35;3.05;;;;;;;24.20;59.42;101270.72;4824874;29;20240;-71
2023/08/15 11:18:46;;;;;;;3.60;3.40;;;;;;;24.27;60.08;101268.75;4824461;29;20305;-71
2023/08/15 11:21:14;;;;;;;3.45;3.35;;;;;;;24.21;58.25;101266.94;4824513;29;20429;-71
2023/08/15 11:23:41;;;;;;;3.22;3.03;;;;;;;24.26;60.33;101269.81;4824795;29;20191;-72
2023/08/15 11:26:10;;;;;;;3.28;2.85;;;;;;;24.30;58.68;101276.50;4824455;29;20199;-72